Forside
METAR-TAF:

METAR-TAF

Lufthavne :

Chengdu Shuangliu International Airport

Chengdu, Kina

Breddekreds: 30-40N, længdekreds: 104-01E, højde: 508 m

Aktuelle vejr

Denne rapport blev lavet for 51 minutter siden, kl. 17:00 UTC
Vind 4 kt fra syd, varierende mellem sydøst og sydvest
Temperatur 17°C
Fugtighed 88%
Tryk 1020 hPa
Sigt: 8000 m
Spredte skyer i en højde af 5000 ft

METAR: ZUUU 151700Z 18002MPS 140V220 8000 SCT050 17/15 Q1020 NOSIG

Tid: 01:51 (17:51 UTC)

Vejrudsigter

Denne rapport blev lavet for 3 timer og 44 minutter siden, kl. 14:07 UTC
Foreløbig gælder fra 15 på 18 UTC til 16 på 18 UTC
Vind 6 kt fra sydsydvest
Sigt: 3500 m
Spredte skyer i en højde af 4000 ft
dis
ændring
fra 15 på 23 UTC til 15 på 24 UTC
Sigt: 2000 m
ændring
fra 16 på 01 UTC til 16 på 02 UTC
Sigt: 3500 m

TAF: ZUUU 151407Z 1518/1618 20003MPS 3500 BR SCT040 TX21/1607Z TN13/1523Z BECMG 1523/1524 2000 BECMG 1601/1602 3500

Vejrobservationer og prognoser fra mere end 4000 lufthavne (METAR og TAF).

De gule og røde prikker repræsenterer de meteorologiske stationer.

Flyt musen over at se navnet på stationen.

Så klik over at se vejr observationer og prognoser.

At skifte det kort: Klik på de grønne knapper med et sort kors for at zoome ind; på den grønne knap med en bindestreg for at zoome ud; eller på de grønne pile for tilstødende kort.


METAR-TAF: